createdAt,value
2018-03-11T00:00:07.302Z,94.37
2018-03-11T00:01:07.223Z,93.98
2018-03-11T00:02:07.143Z,93.98
2018-03-11T00:03:07.063Z,94.18
2018-03-11T00:04:06.983Z,93.60
2018-03-11T00:05:06.902Z,93.89
2018-03-11T00:06:06.824Z,93.04
2018-03-11T00:07:06.740Z,93.13
2018-03-11T00:08:06.661Z,92.46
2018-03-11T00:09:06.580Z,92.75
2018-03-11T00:10:06.533Z,92.46
2018-03-11T00:11:06.436Z,92.75
2018-03-11T00:12:06.371Z,92.27
2018-03-11T00:13:06.259Z,92.46
2018-03-11T00:14:06.180Z,92.27
2018-03-11T00:15:06.102Z,92.27
2018-03-11T00:16:06.019Z,92.75
2018-03-11T00:17:05.938Z,92.36
2018-03-11T00:18:05.859Z,92.46
2018-03-11T00:19:05.780Z,92.94
2018-03-11T00:20:05.697Z,92.36
2018-03-11T00:21:05.617Z,92.75
2018-03-11T00:22:05.538Z,92.46
2018-03-11T00:23:05.458Z,92.65
2018-03-11T00:24:05.374Z,92.36
2018-03-11T00:25:05.298Z,92.65
2018-03-11T00:26:05.216Z,92.36
2018-03-11T00:27:05.138Z,92.84
2018-03-11T00:28:05.054Z,92.75
2018-03-11T00:29:04.974Z,92.84
2018-03-11T00:30:04.894Z,92.75
2018-03-11T00:31:04.815Z,92.36
2018-03-11T00:32:04.731Z,92.36
2018-03-11T00:33:04.659Z,92.94
2018-03-11T00:34:04.574Z,92.36
2018-03-11T00:35:04.492Z,92.75
2018-03-11T00:36:04.411Z,92.84
2018-03-11T00:37:04.336Z,92.56
2018-03-11T00:38:04.251Z,92.56
2018-03-11T00:39:04.168Z,92.94
2018-03-11T00:40:04.088Z,92.36
2018-03-11T00:41:04.010Z,92.94
2018-03-11T00:42:03.930Z,92.46
2018-03-11T00:43:03.848Z,92.84
2018-03-11T00:44:03.769Z,93.04
2018-03-11T00:45:03.686Z,92.94
2018-03-11T00:46:03.606Z,92.32
2018-03-11T00:47:03.524Z,92.56
2018-03-11T00:48:03.447Z,92.51
2018-03-11T00:49:03.365Z,92.84
2018-03-11T00:50:03.283Z,93.08
2018-03-11T00:51:03.204Z,93.08
2018-03-11T00:52:03.136Z,92.94
2018-03-11T00:53:03.041Z,92.80
2018-03-11T00:54:02.963Z,93.08
2018-03-11T00:55:02.881Z,92.32
2018-03-11T00:56:02.799Z,92.41
2018-03-11T00:57:02.720Z,92.41
2018-03-11T00:58:02.639Z,92.32
2018-03-11T00:59:02.560Z,92.80
2018-03-11T01:00:02.483Z,92.70
2018-03-11T01:01:02.402Z,92.61
2018-03-11T01:02:02.320Z,92.51
2018-03-11T01:03:02.242Z,93.08
2018-03-11T01:04:02.156Z,92.51
2018-03-11T01:05:02.101Z,93.27
2018-03-11T01:06:01.997Z,92.70
2018-03-11T01:07:01.917Z,92.51
2018-03-11T01:08:01.833Z,92.32
2018-03-11T01:09:01.758Z,92.80
2018-03-11T01:10:01.677Z,92.51
2018-03-11T01:11:01.592Z,92.51
2018-03-11T01:12:01.510Z,93.27
2018-03-11T01:13:01.430Z,93.18
2018-03-11T01:14:01.359Z,93.18
2018-03-11T01:15:01.307Z,92.80
2018-03-11T01:16:01.190Z,92.41
2018-03-11T01:17:01.112Z,92.70
2018-03-11T01:18:01.029Z,92.70
2018-03-11T01:19:00.948Z,92.70
2018-03-11T01:20:00.866Z,92.70
2018-03-11T01:21:00.787Z,92.80
2018-03-11T01:22:00.707Z,92.61
2018-03-11T01:23:00.624Z,92.80
2018-03-11T01:24:00.561Z,92.70
2018-03-11T01:25:00.462Z,92.70
2018-03-11T01:26:00.382Z,92.80
2018-03-11T01:27:00.300Z,93.08
2018-03-11T01:28:00.220Z,92.51
2018-03-11T01:29:00.141Z,92.89
2018-03-11T01:30:00.062Z,93.18
2018-03-11T01:30:59.979Z,92.99
2018-03-11T01:31:59.896Z,93.27
2018-03-11T01:32:59.820Z,93.18
2018-03-11T01:33:59.737Z,93.37
2018-03-11T01:34:59.662Z,93.18
2018-03-11T01:35:59.574Z,93.55
2018-03-11T01:36:59.495Z,93.18
2018-03-11T01:37:59.436Z,93.27
2018-03-11T01:38:59.335Z,93.55
2018-03-11T01:39:59.251Z,93.55
2018-03-11T01:40:59.170Z,93.27
2018-03-11T01:41:59.090Z,92.70
2018-03-11T01:42:59.010Z,92.99
2018-03-11T01:43:58.930Z,92.70
2018-03-11T01:44:58.848Z,92.99
2018-03-11T01:45:58.766Z,93.18
2018-03-11T01:46:58.688Z,93.08
2018-03-11T01:47:58.608Z,93.08
2018-03-11T01:48:58.526Z,93.27
2018-03-11T01:49:58.442Z,93.18
2018-03-11T01:50:58.365Z,93.18
2018-03-11T01:51:58.285Z,93.27
2018-03-11T01:52:58.207Z,93.18
2018-03-11T01:53:58.123Z,93.37
2018-03-11T01:54:58.043Z,93.08
2018-03-11T01:55:57.963Z,93.18
2018-03-11T01:56:57.882Z,92.51
2018-03-11T01:57:57.803Z,92.80
2018-03-11T01:58:57.723Z,92.80
2018-03-11T01:59:57.638Z,93.18
2018-03-11T02:00:57.557Z,93.27
2018-03-11T02:01:57.477Z,92.80
2018-03-11T02:02:57.394Z,92.89
2018-03-11T02:03:57.325Z,93.37
2018-03-11T02:04:57.234Z,92.80
2018-03-11T02:05:57.154Z,93.18
2018-03-11T02:06:57.075Z,92.99
2018-03-11T02:07:56.992Z,93.18
2018-03-11T02:08:56.920Z,93.27
2018-03-11T02:09:56.831Z,92.89
2018-03-11T02:10:56.749Z,93.27
2018-03-11T02:11:56.671Z,92.41
2018-03-11T02:12:56.589Z,92.51
2018-03-11T02:13:56.512Z,92.70
2018-03-11T02:14:56.428Z,92.70
2018-03-11T02:15:56.351Z,92.89
2018-03-11T02:16:56.268Z,92.70
2018-03-11T02:17:56.210Z,93.08
2018-03-11T02:18:56.107Z,92.32
2018-03-11T02:19:56.026Z,92.32
2018-03-11T02:20:55.945Z,92.80
2018-03-11T02:21:55.867Z,92.32
2018-03-11T02:22:55.782Z,92.41
2018-03-11T02:23:55.701Z,92.80
2018-03-11T02:24:55.623Z,92.51
2018-03-11T02:25:55.542Z,92.22
2018-03-11T02:26:55.461Z,92.41
2018-03-11T02:27:55.381Z,92.99
2018-03-11T02:28:55.298Z,92.32
2018-03-11T02:29:55.221Z,92.22
2018-03-11T02:30:55.149Z,92.22
2018-03-11T02:31:55.059Z,92.41
2018-03-11T02:32:54.982Z,92.03
2018-03-11T02:33:54.897Z,92.61
2018-03-11T02:34:54.824Z,92.32
2018-03-11T02:35:54.735Z,92.13
2018-03-11T02:36:54.665Z,92.13
2018-03-11T02:37:54.575Z,92.70
2018-03-11T02:38:54.497Z,92.70
2018-03-11T02:39:54.415Z,92.99
2018-03-11T02:40:54.333Z,92.89
2018-03-11T02:41:54.253Z,92.89
2018-03-11T02:42:54.171Z,92.80
2018-03-11T02:43:54.089Z,92.70
2018-03-11T02:44:54.012Z,92.70
2018-03-11T02:45:53.928Z,92.41
2018-03-11T02:46:53.857Z,92.70
2018-03-11T02:47:53.767Z,92.89
2018-03-11T02:48:53.686Z,92.80
2018-03-11T02:49:53.609Z,92.51
2018-03-11T02:50:53.533Z,93.37
2018-03-11T02:51:53.444Z,93.27
2018-03-11T02:52:53.363Z,93.18
2018-03-11T02:53:53.284Z,93.37
2018-03-11T02:54:53.201Z,93.18
2018-03-11T02:55:53.126Z,92.61
2018-03-11T02:56:53.039Z,93.37
2018-03-11T02:57:52.958Z,93.18
2018-03-11T02:58:52.878Z,92.41
2018-03-11T02:59:52.797Z,92.32
2018-03-11T03:00:52.714Z,93.18
2018-03-11T03:01:52.636Z,92.75
2018-03-11T03:02:52.554Z,92.80
2018-03-11T03:03:52.485Z,93.13
2018-03-11T03:04:52.392Z,93.18
2018-03-11T03:05:52.312Z,93.18
2018-03-11T03:06:52.232Z,92.70
2018-03-11T03:07:52.148Z,92.80
2018-03-11T03:08:52.080Z,92.70
2018-03-11T03:09:51.989Z,93.08
2018-03-11T03:10:51.907Z,92.32
2018-03-11T03:11:51.830Z,93.08
2018-03-11T03:12:51.744Z,92.89
2018-03-11T03:13:51.665Z,92.51
2018-03-11T03:14:51.583Z,92.27
2018-03-11T03:15:51.513Z,92.41
2018-03-11T03:16:51.422Z,92.80
2018-03-11T03:17:51.340Z,92.27
2018-03-11T03:18:51.261Z,92.37
2018-03-11T03:19:51.184Z,92.22
2018-03-11T03:20:51.101Z,92.51
2018-03-11T03:21:51.017Z,92.85
2018-03-11T03:22:50.937Z,93.04
2018-03-11T03:23:50.857Z,92.94
2018-03-11T03:24:50.785Z,92.66
2018-03-11T03:25:50.695Z,92.66
2018-03-11T03:26:50.612Z,92.94
2018-03-11T03:27:50.531Z,92.27
2018-03-11T03:28:50.448Z,92.46
2018-03-11T03:29:50.415Z,92.85
2018-03-11T03:30:50.331Z,92.66
2018-03-11T03:31:50.209Z,92.85
2018-03-11T03:32:50.127Z,93.04
2018-03-11T03:33:50.045Z,92.75
2018-03-11T03:34:49.970Z,92.66
2018-03-11T03:35:49.884Z,92.75
2018-03-11T03:36:49.804Z,92.46
2018-03-11T03:37:49.721Z,92.37
2018-03-11T03:38:49.641Z,92.85
2018-03-11T03:39:49.560Z,92.85
2018-03-11T03:40:49.480Z,92.75
2018-03-11T03:41:49.399Z,92.66
2018-03-11T03:42:49.318Z,92.75
2018-03-11T03:43:49.252Z,93.23
2018-03-11T03:44:49.154Z,92.46
2018-03-11T03:45:49.073Z,92.75
2018-03-11T03:46:48.995Z,92.75
2018-03-11T03:47:48.912Z,92.66
2018-03-11T03:48:48.831Z,92.27
2018-03-11T03:49:48.749Z,92.94
2018-03-11T03:50:48.678Z,92.56
2018-03-11T03:51:48.588Z,92.66
2018-03-11T03:52:48.511Z,92.27
2018-03-11T03:53:48.425Z,93.23
2018-03-11T03:54:48.343Z,92.94
2018-03-11T03:55:48.266Z,92.85
2018-03-11T03:56:48.181Z,93.32
2018-03-11T03:57:48.102Z,93.32
2018-03-11T03:58:48.020Z,92.75
2018-03-11T03:59:47.937Z,92.46
2018-03-11T04:00:47.856Z,92.37
2018-03-11T04:01:47.778Z,93.41
2018-03-11T04:02:47.700Z,93.23
2018-03-11T04:03:47.611Z,92.66
2018-03-11T04:04:47.532Z,92.66
2018-03-11T04:05:47.449Z,92.46
2018-03-11T04:06:47.376Z,92.85
2018-03-11T04:07:47.292Z,92.75
2018-03-11T04:08:47.206Z,92.75
2018-03-11T04:09:47.125Z,92.46
2018-03-11T04:10:47.075Z,92.37
2018-03-11T04:11:46.961Z,92.27
2018-03-11T04:12:46.882Z,92.37
2018-03-11T04:13:46.801Z,92.37
2018-03-11T04:14:46.720Z,92.18
2018-03-11T04:15:46.637Z,92.37
2018-03-11T04:16:46.557Z,92.75
2018-03-11T04:17:46.474Z,92.27
2018-03-11T04:18:46.394Z,92.18
2018-03-11T04:19:46.323Z,92.85
2018-03-11T04:20:46.243Z,92.75
2018-03-11T04:21:46.153Z,92.75
2018-03-11T04:22:46.069Z,92.66
2018-03-11T04:23:45.985Z,92.56
2018-03-11T04:24:45.904Z,92.66
2018-03-11T04:25:45.824Z,92.66
2018-03-11T04:26:45.743Z,92.75
2018-03-11T04:27:45.662Z,92.85
2018-03-11T04:28:45.579Z,92.66
2018-03-11T04:29:45.529Z,92.46
2018-03-11T04:30:45.419Z,92.37
2018-03-11T04:31:45.334Z,92.37
2018-03-11T04:32:45.255Z,92.18
2018-03-11T04:33:45.174Z,92.23
2018-03-11T04:34:45.091Z,92.27
2018-03-11T04:35:45.009Z,92.66
2018-03-11T04:36:44.929Z,92.32
2018-03-11T04:37:44.846Z,92.23
2018-03-11T04:38:44.764Z,92.75
2018-03-11T04:39:44.694Z,92.56
2018-03-11T04:40:44.602Z,92.42
2018-03-11T04:41:44.523Z,92.80
2018-03-11T04:42:44.440Z,92.66
2018-03-11T04:43:44.361Z,92.71
2018-03-11T04:44:44.276Z,92.42
2018-03-11T04:45:44.196Z,93.18
2018-03-11T04:46:44.116Z,92.61
2018-03-11T04:47:44.035Z,92.42
2018-03-11T04:48:43.953Z,92.71
2018-03-11T04:49:43.881Z,93.27
2018-03-11T04:50:43.791Z,93.08
2018-03-11T04:51:43.706Z,92.51
2018-03-11T04:52:43.625Z,92.42
2018-03-11T04:53:43.543Z,92.61
2018-03-11T04:54:43.461Z,92.61
2018-03-11T04:55:43.383Z,92.42
2018-03-11T04:56:43.300Z,92.61
2018-03-11T04:57:43.222Z,92.61
2018-03-11T04:58:43.135Z,92.80
2018-03-11T04:59:43.055Z,92.80
2018-03-11T05:00:42.973Z,92.42
2018-03-11T05:01:42.894Z,92.80
2018-03-11T05:02:42.819Z,92.80
2018-03-11T05:03:42.728Z,92.80
2018-03-11T05:04:42.648Z,92.32
2018-03-11T05:05:42.565Z,92.23
2018-03-11T05:06:42.484Z,92.13
2018-03-11T05:07:42.402Z,92.42
2018-03-11T05:08:42.321Z,92.42
2018-03-11T05:09:42.251Z,92.99
2018-03-11T05:10:42.161Z,92.80
2018-03-11T05:11:42.076Z,92.80
2018-03-11T05:12:41.995Z,92.42
2018-03-11T05:13:41.914Z,92.32
2018-03-11T05:14:41.832Z,92.42
2018-03-11T05:15:41.751Z,92.42
2018-03-11T05:16:41.670Z,92.61
2018-03-11T05:17:41.606Z,92.80
2018-03-11T05:18:41.507Z,92.61
2018-03-11T05:19:41.424Z,92.61
2018-03-11T05:20:41.343Z,92.80
2018-03-11T05:21:41.261Z,92.42
2018-03-11T05:22:41.180Z,91.66
2018-03-11T05:23:41.098Z,92.90
2018-03-11T05:24:41.017Z,92.51
2018-03-11T05:25:40.934Z,92.80
2018-03-11T05:26:40.853Z,92.23
2018-03-11T05:27:40.777Z,92.32
2018-03-11T05:28:40.691Z,92.61
2018-03-11T05:29:40.612Z,92.23
2018-03-11T05:30:40.528Z,92.90
2018-03-11T05:31:40.449Z,92.13
2018-03-11T05:32:40.453Z,92.23
2018-03-11T05:33:40.283Z,92.80
2018-03-11T05:34:40.201Z,92.23
2018-03-11T05:35:40.118Z,92.23
2018-03-11T05:36:40.037Z,92.51
2018-03-11T05:37:39.956Z,92.13
2018-03-11T05:38:39.876Z,92.32
2018-03-11T05:39:39.794Z,92.61
2018-03-11T05:40:39.712Z,92.80
2018-03-11T05:41:39.630Z,92.32
2018-03-11T05:42:39.555Z,92.23
2018-03-11T05:43:39.464Z,92.71
2018-03-11T05:44:39.384Z,92.23
2018-03-11T05:45:39.302Z,92.51
2018-03-11T05:46:39.233Z,92.32
2018-03-11T05:47:39.140Z,92.51
2018-03-11T05:48:39.057Z,92.42
2018-03-11T05:49:38.976Z,92.32
2018-03-11T05:50:38.893Z,92.80
2018-03-11T05:51:38.814Z,92.80
2018-03-11T05:52:38.731Z,92.80
2018-03-11T05:53:38.651Z,92.61
2018-03-11T05:54:38.566Z,92.32
2018-03-11T05:55:38.486Z,92.13
2018-03-11T05:56:38.404Z,92.13
2018-03-11T05:57:38.322Z,92.13
2018-03-11T05:58:38.240Z,92.23
2018-03-11T05:59:38.159Z,92.42
2018-03-11T06:00:38.084Z,92.23
2018-03-11T06:01:37.995Z,92.23
2018-03-11T06:02:37.934Z,92.32
2018-03-11T06:03:37.830Z,92.61
2018-03-11T06:04:37.750Z,92.32
2018-03-11T06:05:37.667Z,92.51
2018-03-11T06:06:37.588Z,92.42
2018-03-11T06:07:37.505Z,92.13
2018-03-11T06:08:37.422Z,92.42
2018-03-11T06:09:37.341Z,92.23
2018-03-11T06:10:37.314Z,92.42
2018-03-11T06:11:37.178Z,92.80
2018-03-11T06:12:37.097Z,93.18
2018-03-11T06:13:37.015Z,92.99
2018-03-11T06:14:36.936Z,92.99
2018-03-11T06:15:36.851Z,93.27
2018-03-11T06:16:36.770Z,93.65
2018-03-11T06:17:36.693Z,93.84
2018-03-11T06:18:36.615Z,92.90
2018-03-11T06:19:36.528Z,93.08
2018-03-11T06:20:36.442Z,93.27
2018-03-11T06:21:36.363Z,93.46
2018-03-11T06:22:36.290Z,92.80
2018-03-11T06:23:36.203Z,93.56
2018-03-11T06:24:36.118Z,93.46
2018-03-11T06:25:36.036Z,93.08
2018-03-11T06:26:35.955Z,92.99
2018-03-11T06:27:35.874Z,93.18
2018-03-11T06:28:35.789Z,93.08
2018-03-11T06:29:35.707Z,93.08
2018-03-11T06:30:35.643Z,93.27
2018-03-11T06:31:35.545Z,92.51
2018-03-11T06:32:35.463Z,92.42
2018-03-11T06:33:35.381Z,92.61
2018-03-11T06:34:35.301Z,92.42
2018-03-11T06:35:35.219Z,92.99
2018-03-11T06:36:35.136Z,92.23
2018-03-11T06:37:35.057Z,92.04
2018-03-11T06:38:34.980Z,92.90
2018-03-11T06:39:34.893Z,92.90
2018-03-11T06:40:34.813Z,92.99
2018-03-11T06:41:34.737Z,92.71
2018-03-11T06:42:34.951Z,92.80
2018-03-11T06:43:34.567Z,92.23
2018-03-11T06:44:34.482Z,92.42
2018-03-11T06:45:34.406Z,92.13
2018-03-11T06:46:34.322Z,92.23
2018-03-11T06:47:34.239Z,92.32
2018-03-11T06:48:34.158Z,92.32
2018-03-11T06:49:34.077Z,92.75
2018-03-11T06:50:33.994Z,92.08
2018-03-11T06:51:33.913Z,92.23
2018-03-11T06:52:33.833Z,92.23
2018-03-11T06:53:33.752Z,92.18
2018-03-11T06:54:33.688Z,92.13
2018-03-11T06:55:33.586Z,91.80
2018-03-11T06:56:33.508Z,92.66
2018-03-11T06:57:33.426Z,92.08
2018-03-11T06:58:33.346Z,91.80
2018-03-11T06:59:33.262Z,92.18
2018-03-11T07:00:33.184Z,91.04
2018-03-11T07:01:33.101Z,90.66
2018-03-11T07:02:33.018Z,91.42
2018-03-11T07:03:32.944Z,90.85
2018-03-11T07:04:32.856Z,91.23
2018-03-11T07:05:32.774Z,91.04
2018-03-11T07:06:32.692Z,90.75
2018-03-11T07:07:32.611Z,91.42
2018-03-11T07:08:32.534Z,91.13
2018-03-11T07:09:32.467Z,91.23
2018-03-11T07:10:32.368Z,91.04
2018-03-11T07:11:32.304Z,90.85
2018-03-11T07:12:32.209Z,90.61
2018-03-11T07:13:32.125Z,90.52
2018-03-11T07:14:32.045Z,90.00
2018-03-11T07:15:31.966Z,90.70
2018-03-11T07:16:31.883Z,90.04
2018-03-11T07:17:31.799Z,89.75
2018-03-11T07:18:31.718Z,89.00
2018-03-11T07:19:31.638Z,89.37
2018-03-11T07:20:31.558Z,89.56
2018-03-11T07:21:31.477Z,89.00
2018-03-11T07:22:31.404Z,88.71
2018-03-11T07:23:31.316Z,89.18
2018-03-11T07:24:31.234Z,89.00
2018-03-11T07:25:31.152Z,89.28
2018-03-11T07:26:31.076Z,88.52
2018-03-11T07:27:30.991Z,88.71
2018-03-11T07:28:30.908Z,88.90
2018-03-11T07:29:30.829Z,88.71
2018-03-11T07:30:30.749Z,88.61
2018-03-11T07:31:30.665Z,88.61
2018-03-11T07:32:30.585Z,88.61
2018-03-11T07:33:30.511Z,88.66
2018-03-11T07:34:30.426Z,88.18
2018-03-11T07:35:30.343Z,87.80
2018-03-11T07:36:30.262Z,87.52
2018-03-11T07:37:30.183Z,86.94
2018-03-11T07:38:30.121Z,86.85
2018-03-11T07:39:30.022Z,86.66
2018-03-11T07:40:29.942Z,87.13
2018-03-11T07:41:29.863Z,86.47
2018-03-11T07:42:29.782Z,86.66
2018-03-11T07:43:29.699Z,86.47
2018-03-11T07:44:29.620Z,86.28
2018-03-11T07:45:29.541Z,85.99
2018-03-11T07:46:29.458Z,85.61
2018-03-11T07:47:29.378Z,85.33
2018-03-11T07:48:29.301Z,84.99
2018-03-11T07:49:29.218Z,85.85
2018-03-11T07:50:29.140Z,85.18
2018-03-11T07:51:29.056Z,85.94
2018-03-11T07:52:28.988Z,84.33
2018-03-11T07:53:28.898Z,84.99
2018-03-11T07:54:28.837Z,84.99
2018-03-11T07:55:28.737Z,84.42
2018-03-11T07:56:28.655Z,84.61
2018-03-11T07:57:28.580Z,84.42
2018-03-11T07:58:28.501Z,83.85
2018-03-11T07:59:28.418Z,83.85
2018-03-11T08:00:28.337Z,83.37
2018-03-11T08:01:28.258Z,83.37
2018-03-11T08:02:28.181Z,83.09
2018-03-11T08:03:28.098Z,82.90
2018-03-11T08:04:28.021Z,82.99
2018-03-11T08:05:27.939Z,82.18
2018-03-11T08:06:27.861Z,82.46
2018-03-11T08:07:27.780Z,82.80
2018-03-11T08:08:27.698Z,81.98
2018-03-11T08:09:27.621Z,82.18
2018-03-11T08:10:27.543Z,81.79
2018-03-11T08:11:27.478Z,82.08
2018-03-11T08:12:27.383Z,82.27
2018-03-11T08:13:27.303Z,81.79
2018-03-11T08:14:27.284Z,81.51
2018-03-11T08:15:27.143Z,81.23
2018-03-11T08:16:27.061Z,80.27
2018-03-11T08:17:26.984Z,80.94
2018-03-11T08:18:26.903Z,80.84
2018-03-11T08:19:26.841Z,81.03
2018-03-11T08:20:26.744Z,81.32
2018-03-11T08:21:26.667Z,81.03
2018-03-11T08:22:26.588Z,79.89
2018-03-11T08:23:26.506Z,80.27
2018-03-11T08:24:26.451Z,80.36
2018-03-11T08:25:26.347Z,80.08
2018-03-11T08:26:26.269Z,80.50
2018-03-11T08:27:26.190Z,80.41
2018-03-11T08:28:26.112Z,79.83
2018-03-11T08:29:26.032Z,80.41
2018-03-11T08:30:25.952Z,80.50
2018-03-11T08:31:25.876Z,80.12
2018-03-11T08:32:25.795Z,79.36
2018-03-11T08:33:25.715Z,78.50
2018-03-11T08:34:25.639Z,79.46
2018-03-11T08:35:25.558Z,79.27
2018-03-11T08:36:25.479Z,79.07
2018-03-11T08:37:25.407Z,78.98
2018-03-11T08:38:25.321Z,78.98
2018-03-11T08:39:25.239Z,78.78
2018-03-11T08:40:25.163Z,78.88
2018-03-11T08:41:25.085Z,79.27
2018-03-11T08:42:25.005Z,78.78
2018-03-11T08:43:24.939Z,78.69
2018-03-11T08:44:24.848Z,77.83
2018-03-11T08:45:24.770Z,78.41
2018-03-11T08:46:24.691Z,77.93
2018-03-11T08:47:24.609Z,78.22
2018-03-11T08:48:24.598Z,78.59
2018-03-11T08:49:24.455Z,78.69
2018-03-11T08:50:24.379Z,77.64
2018-03-11T08:51:24.294Z,78.22
2018-03-11T08:52:24.217Z,77.93
2018-03-11T08:53:24.141Z,77.93
2018-03-11T08:54:24.062Z,77.93
2018-03-11T08:55:23.984Z,78.88
2018-03-11T08:56:23.912Z,78.64
2018-03-11T08:57:23.824Z,78.41
2018-03-11T08:58:23.751Z,78.73
2018-03-11T08:59:23.689Z,77.59
2018-03-11T09:00:23.589Z,78.54
2018-03-11T09:01:23.512Z,78.06
2018-03-11T09:02:23.431Z,77.97
2018-03-11T09:03:23.352Z,78.44
2018-03-11T09:04:23.274Z,78.16
2018-03-11T09:05:23.197Z,77.69
2018-03-11T09:06:23.131Z,77.40
2018-03-11T09:07:23.040Z,78.16
2018-03-11T09:08:22.961Z,77.87
2018-03-11T09:09:22.881Z,78.25
2018-03-11T09:10:22.808Z,77.40
2018-03-11T09:11:22.724Z,77.49
2018-03-11T09:12:22.665Z,77.72
2018-03-11T09:13:22.573Z,77.78
2018-03-11T09:14:22.512Z,77.62
2018-03-11T09:15:22.412Z,77.62
2018-03-11T09:16:22.335Z,76.96
2018-03-11T09:17:22.257Z,77.34
2018-03-11T09:18:22.178Z,77.62
2018-03-11T09:19:22.099Z,76.77
2018-03-11T09:20:22.023Z,77.44
2018-03-11T09:21:21.945Z,77.06
2018-03-11T09:22:21.868Z,76.86
2018-03-11T09:23:21.789Z,77.15
2018-03-11T09:24:21.710Z,76.96
2018-03-11T09:25:21.634Z,76.39
2018-03-11T09:26:21.557Z,75.15
2018-03-11T09:27:21.475Z,75.43
2018-03-11T09:28:21.399Z,76.10
2018-03-11T09:29:21.321Z,76.10
2018-03-11T09:30:21.244Z,76.10
2018-03-11T09:31:21.164Z,76.20
2018-03-11T09:32:21.087Z,76.29
2018-03-11T09:33:21.014Z,76.01
2018-03-11T09:34:20.935Z,76.01
2018-03-11T09:35:20.854Z,75.62
2018-03-11T09:36:20.777Z,75.37
2018-03-11T09:37:20.699Z,75.09
2018-03-11T09:38:20.620Z,74.80
2018-03-11T09:39:20.544Z,75.28
2018-03-11T09:40:20.469Z,75.37
2018-03-11T09:41:20.399Z,75.37
2018-03-11T09:42:20.329Z,75.47
2018-03-11T09:43:20.238Z,75.47
2018-03-11T09:44:20.165Z,76.14
2018-03-11T09:45:20.080Z,75.37
2018-03-11T09:46:20.002Z,75.18
2018-03-11T09:47:19.926Z,75.57
2018-03-11T09:48:19.847Z,75.57
2018-03-11T09:49:19.769Z,75.18
2018-03-11T09:50:19.695Z,75.66
2018-03-11T09:51:19.616Z,75.47
2018-03-11T09:52:19.539Z,76.46
2018-03-11T09:53:19.462Z,76.27
2018-03-11T09:54:19.385Z,76.18
2018-03-11T09:55:19.306Z,75.42
2018-03-11T09:56:19.230Z,74.84
2018-03-11T09:57:19.160Z,74.55
2018-03-11T09:58:19.078Z,74.93
2018-03-11T09:59:19.012Z,75.13
2018-03-11T10:00:18.921Z,75.03
2018-03-11T10:01:18.845Z,74.37
2018-03-11T10:02:18.767Z,74.08
2018-03-11T10:03:18.691Z,73.69
2018-03-11T10:04:18.614Z,73.22
2018-03-11T10:05:18.585Z,73.83
2018-03-11T10:06:18.470Z,73.54
2018-03-11T10:07:18.381Z,73.73
2018-03-11T10:08:18.308Z,73.92
2018-03-11T10:09:18.231Z,73.35
2018-03-11T10:10:18.153Z,73.35
2018-03-11T10:11:18.082Z,73.92
2018-03-11T10:12:18.001Z,73.54
2018-03-11T10:13:17.925Z,73.16
2018-03-11T10:14:17.848Z,73.63
2018-03-11T10:15:17.772Z,72.87
2018-03-11T10:16:17.703Z,73.63
2018-03-11T10:17:17.621Z,73.44
2018-03-11T10:18:17.543Z,73.25
2018-03-11T10:19:17.470Z,72.78
2018-03-11T10:20:17.390Z,73.44
2018-03-11T10:21:17.313Z,73.25
2018-03-11T10:22:17.239Z,73.07
2018-03-11T10:23:17.169Z,73.63
2018-03-11T10:24:17.085Z,73.35
2018-03-11T10:25:17.011Z,73.63
2018-03-11T10:26:16.933Z,73.25
2018-03-11T10:27:16.856Z,73.07
2018-03-11T10:28:16.781Z,72.49
2018-03-11T10:29:16.704Z,72.30
2018-03-11T10:30:16.631Z,72.20
2018-03-11T10:31:16.553Z,71.92
2018-03-11T10:32:16.481Z,72.11
2018-03-11T10:33:16.411Z,72.20
2018-03-11T10:34:16.322Z,72.49
2018-03-11T10:35:16.251Z,72.39
2018-03-11T10:36:16.176Z,72.58
2018-03-11T10:37:16.095Z,72.30
2018-03-11T10:38:16.022Z,71.09
2018-03-11T10:39:15.942Z,71.25
2018-03-11T10:40:15.869Z,71.15
2018-03-11T10:41:15.790Z,71.44
2018-03-11T10:42:15.715Z,70.48
2018-03-11T10:43:15.639Z,71.63
2018-03-11T10:44:15.561Z,71.82
2018-03-11T10:45:15.490Z,71.19
2018-03-11T10:46:15.409Z,71.15
2018-03-11T10:47:15.335Z,72.11
2018-03-11T10:48:15.260Z,71.19
2018-03-11T10:49:15.308Z,71.00
2018-03-11T10:50:15.107Z,72.01
2018-03-11T10:51:15.031Z,72.11
2018-03-11T10:52:14.955Z,71.53
2018-03-11T10:53:14.879Z,72.05
2018-03-11T10:54:14.803Z,72.14
2018-03-11T10:55:14.727Z,72.14
2018-03-11T10:56:14.665Z,71.72
2018-03-11T10:57:14.576Z,71.67
2018-03-11T10:58:14.499Z,71.86
2018-03-11T10:59:14.422Z,71.86
2018-03-11T11:00:14.348Z,71.95
2018-03-11T11:01:14.272Z,72.05
2018-03-11T11:02:14.240Z,72.91
2018-03-11T11:03:14.118Z,71.95
2018-03-11T11:04:14.042Z,72.05
2018-03-11T11:05:13.967Z,71.57
2018-03-11T11:06:13.889Z,72.53
2018-03-11T11:07:13.814Z,71.95
2018-03-11T11:08:13.739Z,71.38
2018-03-11T11:09:13.666Z,72.05
2018-03-11T11:10:13.588Z,72.24
2018-03-11T11:11:13.511Z,72.24
2018-03-11T11:12:13.434Z,72.14
2018-03-11T11:13:13.359Z,71.76
2018-03-11T11:14:13.285Z,72.62
2018-03-11T11:15:13.214Z,72.14
2018-03-11T11:16:13.133Z,71.95
2018-03-11T11:17:13.055Z,71.95
2018-03-11T11:18:12.995Z,71.38
2018-03-11T11:19:12.930Z,71.28
2018-03-11T11:20:12.849Z,71.19
2018-03-11T11:21:12.759Z,71.47
2018-03-11T11:22:12.678Z,71.57
2018-03-11T11:23:12.603Z,72.18
2018-03-11T11:24:12.525Z,72.37
2018-03-11T11:25:12.452Z,71.89
2018-03-11T11:26:12.374Z,71.42
2018-03-11T11:27:12.297Z,71.03
2018-03-11T11:28:12.223Z,71.42
2018-03-11T11:29:12.149Z,70.75
2018-03-11T11:30:12.072Z,69.73
2018-03-11T11:31:12.033Z,69.82
2018-03-11T11:32:11.919Z,69.35
2018-03-11T11:33:11.847Z,69.06
2018-03-11T11:34:11.771Z,69.44
2018-03-11T11:35:11.696Z,68.77
2018-03-11T11:36:11.623Z,69.15
2018-03-11T11:37:11.547Z,69.06
2018-03-11T11:38:11.520Z,69.54
2018-03-11T11:39:11.396Z,69.73
2018-03-11T11:40:11.321Z,68.68
2018-03-11T11:41:11.248Z,68.96
2018-03-11T11:42:11.173Z,69.54
2018-03-11T11:43:11.101Z,69.73
2018-03-11T11:44:11.024Z,69.25
2018-03-11T11:45:10.948Z,69.50
2018-03-11T11:46:10.875Z,69.60
2018-03-11T11:47:10.798Z,70.46
2018-03-11T11:48:10.725Z,69.79
2018-03-11T11:49:10.651Z,70.36
2018-03-11T11:50:10.576Z,69.89
2018-03-11T11:51:10.517Z,69.89
2018-03-11T11:52:10.428Z,69.50
2018-03-11T11:53:10.356Z,69.70
2018-03-11T11:54:10.276Z,69.50
2018-03-11T11:55:10.225Z,69.18
2018-03-11T11:56:10.130Z,69.66
2018-03-11T11:57:10.050Z,69.85
2018-03-11T11:58:10.029Z,70.14
2018-03-11T11:59:09.900Z,70.33
2018-03-11T12:00:09.824Z,70.52
2018-03-11T12:01:09.761Z,70.52
2018-03-11T12:02:09.690Z,70.33
2018-03-11T12:03:09.597Z,70.81
2018-03-11T12:04:09.521Z,70.42
2018-03-11T12:05:09.448Z,70.33
2018-03-11T12:06:09.370Z,69.47
2018-03-11T12:07:09.397Z,69.47
2018-03-11T12:08:09.220Z,68.51
2018-03-11T12:09:09.143Z,68.61
2018-03-11T12:10:09.068Z,69.09
2018-03-11T12:11:09.026Z,68.80
2018-03-11T12:12:08.967Z,68.04
2018-03-11T12:13:08.839Z,67.88
2018-03-11T12:14:08.767Z,67.78
2018-03-11T12:15:08.690Z,67.97
2018-03-11T12:16:08.621Z,67.97
2018-03-11T12:17:08.538Z,67.14
2018-03-11T12:18:08.465Z,66.28
2018-03-11T12:19:08.389Z,66.96
2018-03-11T12:20:08.312Z,66.57
2018-03-11T12:21:08.237Z,65.61
2018-03-11T12:22:08.160Z,65.55
2018-03-11T12:23:08.098Z,64.98
2018-03-11T12:24:08.011Z,64.88
2018-03-11T12:25:07.940Z,64.43
2018-03-11T12:26:07.859Z,63.22
2018-03-11T12:27:07.785Z,61.88
2018-03-11T12:28:07.712Z,61.31
2018-03-11T12:29:07.638Z,61.31
2018-03-11T12:30:07.563Z,60.86
2018-03-11T12:31:07.490Z,60.93
2018-03-11T12:32:07.414Z,60.44
2018-03-11T12:33:07.342Z,60.83
2018-03-11T12:34:07.314Z,61.02
2018-03-11T12:35:07.237Z,60.86
2018-03-11T12:36:07.121Z,61.15
2018-03-11T12:37:07.098Z,61.11
2018-03-11T12:38:07.011Z,61.88
2018-03-11T12:39:06.903Z,61.40
2018-03-11T12:40:06.847Z,61.02
2018-03-11T12:41:06.757Z,60.83
2018-03-11T12:42:06.683Z,61.79
2018-03-11T12:43:06.613Z,61.76
2018-03-11T12:44:06.536Z,62.71
2018-03-11T12:45:06.465Z,62.62
2018-03-11T12:46:06.404Z,62.14
2018-03-11T12:47:06.321Z,63.00
2018-03-11T12:48:06.248Z,63.45
2018-03-11T12:49:06.174Z,63.64
2018-03-11T12:50:06.099Z,63.83
2018-03-11T12:51:06.027Z,63.93